Anton Chico, New Mexico
Current Conditions -  °F | °C
As of 1:29 PM on Sunday 21 Dec 2014 (Local Time) from KLVS Reporting Station
Clear Clear  
Wind Chill: 54°   Ceiling: Unl
Heat Index: 54°   Visibility: 10mi
Dew Point: 21°   Wind: 13mph
Humidity: 28%   Direction: 330°NNW
Pressure: 29.71"   Gusts: 23mph
Location:  35.2°N, 105.14°W
Report Text: KLVS 212029Z AUTO 33011G20KT 10SM CLR 12/M06 A2971 RMK AO2 WSHFT 2009 T01221061
Loading
Personal Weather Stations






























Interactive Weather Map New forecast layout! Learn more

10-Day Weather Forecast

Advertisements
Track Severe Weather on mobile